sensor_id;sensor_type;location;lat;lon;timestamp;P1;durP1;ratioP1;P2;durP2;ratioP2
47625;SDS011;33342;45.574;9.252;2023-07-20T00:00:45;10.77;;;6.05;;
47625;SDS011;33342;45.574;9.252;2023-07-20T00:03:13;9.80;;;5.38;;
47625;SDS011;33342;45.574;9.252;2023-07-20T00:05:45;13.50;;;5.53;;
47625;SDS011;33342;45.574;9.252;2023-07-20T00:08:13;12.43;;;5.22;;
47625;SDS011;33342;45.574;9.252;2023-07-20T00:10:41;13.65;;;5.90;;
47625;SDS011;33342;45.574;9.252;2023-07-20T00:13:08;11.15;;;5.25;;
47625;SDS011;33342;45.574;9.252;2023-07-20T00:15:38;12.98;;;5.88;;
47625;SDS011;33342;45.574;9.252;2023-07-20T00:18:05;14.60;;;5.63;;
47625;SDS011;33342;45.574;9.252;2023-07-20T00:20:32;11.27;;;5.60;;
47625;SDS011;33342;45.574;9.252;2023-07-20T00:22:59;9.88;;;5.20;;
47625;SDS011;33342;45.574;9.252;2023-07-20T00:25:27;13.18;;;5.65;;
47625;SDS011;33342;45.574;9.252;2023-07-20T00:27:54;11.35;;;5.68;;
47625;SDS011;33342;45.574;9.252;2023-07-20T00:30:21;11.50;;;5.78;;
47625;SDS011;33342;45.574;9.252;2023-07-20T00:32:48;14.27;;;6.00;;
47625;SDS011;33342;45.574;9.252;2023-07-20T00:35:16;11.45;;;5.93;;
47625;SDS011;33342;45.574;9.252;2023-07-20T00:37:43;8.55;;;5.57;;
47625;SDS011;33342;45.574;9.252;2023-07-20T00:40:10;18.17;;;6.20;;
47625;SDS011;33342;45.574;9.252;2023-07-20T00:42:37;10.90;;;5.28;;
47625;SDS011;33342;45.574;9.252;2023-07-20T00:45:05;10.60;;;5.55;;
47625;SDS011;33342;45.574;9.252;2023-07-20T00:47:33;11.05;;;5.82;;
47625;SDS011;33342;45.574;9.252;2023-07-20T00:50:00;12.30;;;5.85;;
47625;SDS011;33342;45.574;9.252;2023-07-20T00:52:31;18.98;;;6.20;;
47625;SDS011;33342;45.574;9.252;2023-07-20T00:54:58;10.48;;;5.75;;
47625;SDS011;33342;45.574;9.252;2023-07-20T00:57:25;11.80;;;5.78;;
47625;SDS011;33342;45.574;9.252;2023-07-20T00:59:53;10.05;;;5.22;;
47625;SDS011;33342;45.574;9.252;2023-07-20T01:02:23;12.90;;;5.38;;
47625;SDS011;33342;45.574;9.252;2023-07-20T01:04:50;11.18;;;5.20;;
47625;SDS011;33342;45.574;9.252;2023-07-20T01:10:02;13.32;;;5.93;;
47625;SDS011;33342;45.574;9.252;2023-07-20T01:12:40;11.65;;;5.05;;
47625;SDS011;33342;45.574;9.252;2023-07-20T01:15:09;11.52;;;4.93;;
47625;SDS011;33342;45.574;9.252;2023-07-20T01:17:37;11.98;;;5.07;;
47625;SDS011;33342;45.574;9.252;2023-07-20T01:20:06;12.73;;;5.10;;
47625;SDS011;33342;45.574;9.252;2023-07-20T01:25:20;8.93;;;4.22;;
47625;SDS011;33342;45.574;9.252;2023-07-20T01:32:58;9.70;;;5.18;;
47625;SDS011;33342;45.574;9.252;2023-07-20T01:35:29;10.25;;;4.93;;
47625;SDS011;33342;45.574;9.252;2023-07-20T01:37:56;11.02;;;5.13;;
47625;SDS011;33342;45.574;9.252;2023-07-20T01:40:25;7.95;;;4.80;;
47625;SDS011;33342;45.574;9.252;2023-07-20T01:42:53;8.93;;;5.13;;
47625;SDS011;33342;45.574;9.252;2023-07-20T01:45:20;10.18;;;5.03;;
47625;SDS011;33342;45.574;9.252;2023-07-20T01:47:48;10.70;;;5.22;;
47625;SDS011;33342;45.574;9.252;2023-07-20T01:50:15;7.75;;;4.57;;
47625;SDS011;33342;45.574;9.252;2023-07-20T01:52:42;8.13;;;4.95;;
47625;SDS011;33342;45.574;9.252;2023-07-20T01:55:09;8.27;;;5.25;;
47625;SDS011;33342;45.574;9.252;2023-07-20T01:57:37;10.63;;;5.20;;
47625;SDS011;33342;45.574;9.252;2023-07-20T02:00:04;11.48;;;5.43;;
47625;SDS011;33342;45.574;9.252;2023-07-20T02:02:39;9.40;;;5.05;;
47625;SDS011;33342;45.574;9.252;2023-07-20T02:05:09;11.77;;;5.60;;
47625;SDS011;33342;45.574;9.252;2023-07-20T02:07:36;10.40;;;4.72;;
47625;SDS011;33342;45.574;9.252;2023-07-20T02:10:04;11.27;;;5.80;;
47625;SDS011;33342;45.574;9.252;2023-07-20T02:12:31;11.07;;;5.55;;
47625;SDS011;33342;45.574;9.252;2023-07-20T02:14:59;10.43;;;5.13;;
47625;SDS011;33342;45.574;9.252;2023-07-20T02:17:26;15.38;;;5.95;;
47625;SDS011;33342;45.574;9.252;2023-07-20T02:19:53;11.15;;;5.15;;
47625;SDS011;33342;45.574;9.252;2023-07-20T02:22:21;11.18;;;5.80;;
47625;SDS011;33342;45.574;9.252;2023-07-20T02:24:48;12.45;;;5.90;;
47625;SDS011;33342;45.574;9.252;2023-07-20T02:27:16;9.43;;;5.38;;
47625;SDS011;33342;45.574;9.252;2023-07-20T02:29:44;12.80;;;6.05;;
47625;SDS011;33342;45.574;9.252;2023-07-20T02:32:11;12.30;;;6.22;;
47625;SDS011;33342;45.574;9.252;2023-07-20T02:34:38;10.93;;;6.10;;
47625;SDS011;33342;45.574;9.252;2023-07-20T02:37:05;11.07;;;5.60;;
47625;SDS011;33342;45.574;9.252;2023-07-20T02:39:34;13.07;;;5.68;;
47625;SDS011;33342;45.574;9.252;2023-07-20T02:42:01;11.27;;;6.57;;
47625;SDS011;33342;45.574;9.252;2023-07-20T02:44:28;10.18;;;6.03;;
47625;SDS011;33342;45.574;9.252;2023-07-20T02:46:56;10.73;;;5.70;;
47625;SDS011;33342;45.574;9.252;2023-07-20T02:49:23;12.50;;;6.13;;
47625;SDS011;33342;45.574;9.252;2023-07-20T02:51:50;10.30;;;6.55;;
47625;SDS011;33342;45.574;9.252;2023-07-20T02:54:18;10.50;;;6.28;;
47625;SDS011;33342;45.574;9.252;2023-07-20T02:56:45;12.93;;;6.97;;
47625;SDS011;33342;45.574;9.252;2023-07-20T02:59:12;10.63;;;6.78;;
47625;SDS011;33342;45.574;9.252;2023-07-20T03:01:39;11.32;;;6.22;;
47625;SDS011;33342;45.574;9.252;2023-07-20T03:04:08;13.82;;;7.07;;
47625;SDS011;33342;45.574;9.252;2023-07-20T03:06:38;11.55;;;7.40;;
47625;SDS011;33342;45.574;9.252;2023-07-20T03:09:05;16.88;;;6.85;;
47625;SDS011;33342;45.574;9.252;2023-07-20T03:11:33;11.23;;;6.68;;
47625;SDS011;33342;45.574;9.252;2023-07-20T03:14:00;12.88;;;7.20;;
47625;SDS011;33342;45.574;9.252;2023-07-20T03:16:28;12.82;;;6.70;;
47625;SDS011;33342;45.574;9.252;2023-07-20T03:19:00;11.75;;;7.75;;
47625;SDS011;33342;45.574;9.252;2023-07-20T03:21:28;14.13;;;8.27;;
47625;SDS011;33342;45.574;9.252;2023-07-20T03:23:58;12.40;;;8.13;;
47625;SDS011;33342;45.574;9.252;2023-07-20T03:26:25;13.80;;;8.45;;
47625;SDS011;33342;45.574;9.252;2023-07-20T03:28:52;14.63;;;8.43;;
47625;SDS011;33342;45.574;9.252;2023-07-20T03:31:21;13.65;;;8.55;;
47625;SDS011;33342;45.574;9.252;2023-07-20T03:33:48;15.20;;;8.93;;
47625;SDS011;33342;45.574;9.252;2023-07-20T03:36:16;15.73;;;8.73;;
47625;SDS011;33342;45.574;9.252;2023-07-20T03:38:43;13.55;;;9.23;;
47625;SDS011;33342;45.574;9.252;2023-07-20T03:41:11;17.27;;;9.20;;
47625;SDS011;33342;45.574;9.252;2023-07-20T03:43:38;15.68;;;8.82;;
47625;SDS011;33342;45.574;9.252;2023-07-20T03:46:05;12.40;;;8.70;;
47625;SDS011;33342;45.574;9.252;2023-07-20T03:48:33;14.88;;;9.55;;
47625;SDS011;33342;45.574;9.252;2023-07-20T03:51:01;13.75;;;9.25;;
47625;SDS011;33342;45.574;9.252;2023-07-20T03:53:28;14.73;;;9.13;;
47625;SDS011;33342;45.574;9.252;2023-07-20T03:55:55;15.60;;;8.93;;
47625;SDS011;33342;45.574;9.252;2023-07-20T03:58:22;12.63;;;8.50;;
47625;SDS011;33342;45.574;9.252;2023-07-20T04:00:50;13.93;;;8.70;;
47625;SDS011;33342;45.574;9.252;2023-07-20T04:03:19;13.63;;;9.48;;
47625;SDS011;33342;45.574;9.252;2023-07-20T04:05:47;16.83;;;9.38;;
47625;SDS011;33342;45.574;9.252;2023-07-20T04:08:14;14.80;;;9.48;;
47625;SDS011;33342;45.574;9.252;2023-07-20T04:10:44;16.35;;;8.38;;
47625;SDS011;33342;45.574;9.252;2023-07-20T04:13:12;16.02;;;10.57;;
47625;SDS011;33342;45.574;9.252;2023-07-20T04:15:39;13.82;;;8.70;;
47625;SDS011;33342;45.574;9.252;2023-07-20T04:18:06;17.65;;;8.98;;
47625;SDS011;33342;45.574;9.252;2023-07-20T04:20:33;12.85;;;8.65;;
47625;SDS011;33342;45.574;9.252;2023-07-20T04:23:03;15.43;;;9.60;;
47625;SDS011;33342;45.574;9.252;2023-07-20T04:25:31;15.23;;;9.65;;
47625;SDS011;33342;45.574;9.252;2023-07-20T04:28:06;15.55;;;9.30;;
47625;SDS011;33342;45.574;9.252;2023-07-20T04:30:43;13.88;;;8.88;;
47625;SDS011;33342;45.574;9.252;2023-07-20T04:33:10;18.30;;;9.00;;
47625;SDS011;33342;45.574;9.252;2023-07-20T04:35:46;17.48;;;10.10;;
47625;SDS011;33342;45.574;9.252;2023-07-20T04:38:22;16.27;;;9.60;;
47625;SDS011;33342;45.574;9.252;2023-07-20T04:41:01;13.73;;;10.20;;
47625;SDS011;33342;45.574;9.252;2023-07-20T04:43:32;15.60;;;8.88;;
47625;SDS011;33342;45.574;9.252;2023-07-20T04:45:59;16.45;;;10.70;;
47625;SDS011;33342;45.574;9.252;2023-07-20T04:48:28;16.17;;;10.98;;
47625;SDS011;33342;45.574;9.252;2023-07-20T04:50:56;16.42;;;11.73;;
47625;SDS011;33342;45.574;9.252;2023-07-20T04:53:24;17.50;;;10.20;;
47625;SDS011;33342;45.574;9.252;2023-07-20T04:55:52;15.77;;;10.77;;
47625;SDS011;33342;45.574;9.252;2023-07-20T04:58:23;18.00;;;11.18;;
47625;SDS011;33342;45.574;9.252;2023-07-20T05:00:52;17.88;;;10.50;;
47625;SDS011;33342;45.574;9.252;2023-07-20T05:03:20;17.38;;;10.93;;
47625;SDS011;33342;45.574;9.252;2023-07-20T05:05:48;14.80;;;9.27;;
47625;SDS011;33342;45.574;9.252;2023-07-20T05:08:16;14.27;;;9.52;;
47625;SDS011;33342;45.574;9.252;2023-07-20T05:10:43;18.33;;;10.63;;
47625;SDS011;33342;45.574;9.252;2023-07-20T05:13:11;13.90;;;10.10;;
47625;SDS011;33342;45.574;9.252;2023-07-20T05:15:38;13.98;;;9.48;;
47625;SDS011;33342;45.574;9.252;2023-07-20T05:18:09;15.82;;;10.50;;
47625;SDS011;33342;45.574;9.252;2023-07-20T05:20:36;15.88;;;9.50;;
47625;SDS011;33342;45.574;9.252;2023-07-20T05:23:04;15.75;;;9.75;;
47625;SDS011;33342;45.574;9.252;2023-07-20T05:25:32;15.25;;;9.52;;
47625;SDS011;33342;45.574;9.252;2023-07-20T05:27:59;18.55;;;11.07;;
47625;SDS011;33342;45.574;9.252;2023-07-20T05:30:26;16.35;;;9.55;;
47625;SDS011;33342;45.574;9.252;2023-07-20T05:32:55;17.65;;;11.27;;
47625;SDS011;33342;45.574;9.252;2023-07-20T05:35:23;18.40;;;10.25;;
47625;SDS011;33342;45.574;9.252;2023-07-20T05:37:50;17.20;;;10.57;;
47625;SDS011;33342;45.574;9.252;2023-07-20T05:40:17;15.23;;;9.52;;
47625;SDS011;33342;45.574;9.252;2023-07-20T05:42:46;21.52;;;11.85;;
47625;SDS011;33342;45.574;9.252;2023-07-20T05:45:15;16.27;;;10.70;;
47625;SDS011;33342;45.574;9.252;2023-07-20T05:47:42;18.52;;;11.35;;
47625;SDS011;33342;45.574;9.252;2023-07-20T05:50:10;17.27;;;10.85;;
47625;SDS011;33342;45.574;9.252;2023-07-20T05:52:37;15.02;;;10.65;;
47625;SDS011;33342;45.574;9.252;2023-07-20T05:55:06;15.55;;;10.77;;
47625;SDS011;33342;45.574;9.252;2023-07-20T05:57:33;17.98;;;11.60;;
47625;SDS011;33342;45.574;9.252;2023-07-20T06:00:02;16.42;;;10.63;;
47625;SDS011;33342;45.574;9.252;2023-07-20T06:02:37;15.82;;;10.60;;
47625;SDS011;33342;45.574;9.252;2023-07-20T06:05:06;15.88;;;10.40;;
47625;SDS011;33342;45.574;9.252;2023-07-20T06:07:37;16.27;;;9.85;;
47625;SDS011;33342;45.574;9.252;2023-07-20T06:10:05;18.58;;;10.20;;
47625;SDS011;33342;45.574;9.252;2023-07-20T06:12:33;16.27;;;9.88;;
47625;SDS011;33342;45.574;9.252;2023-07-20T06:15:01;15.70;;;9.30;;
47625;SDS011;33342;45.574;9.252;2023-07-20T06:17:30;15.82;;;10.48;;
47625;SDS011;33342;45.574;9.252;2023-07-20T06:19:58;16.10;;;10.13;;
47625;SDS011;33342;45.574;9.252;2023-07-20T06:22:25;15.77;;;10.35;;
47625;SDS011;33342;45.574;9.252;2023-07-20T06:24:52;14.25;;;9.55;;
47625;SDS011;33342;45.574;9.252;2023-07-20T06:27:19;17.42;;;10.73;;
47625;SDS011;33342;45.574;9.252;2023-07-20T06:29:46;15.15;;;10.35;;
47625;SDS011;33342;45.574;9.252;2023-07-20T06:32:14;17.45;;;11.50;;
47625;SDS011;33342;45.574;9.252;2023-07-20T06:34:41;17.98;;;11.32;;
47625;SDS011;33342;45.574;9.252;2023-07-20T06:37:08;18.98;;;11.65;;
47625;SDS011;33342;45.574;9.252;2023-07-20T06:39:35;15.75;;;10.68;;
47625;SDS011;33342;45.574;9.252;2023-07-20T06:42:06;17.17;;;11.07;;
47625;SDS011;33342;45.574;9.252;2023-07-20T06:44:33;13.07;;;10.30;;
47625;SDS011;33342;45.574;9.252;2023-07-20T06:47:00;17.67;;;10.27;;
47625;SDS011;33342;45.574;9.252;2023-07-20T06:49:27;16.42;;;10.70;;
47625;SDS011;33342;45.574;9.252;2023-07-20T06:51:55;18.20;;;11.10;;
47625;SDS011;33342;45.574;9.252;2023-07-20T06:54:22;17.08;;;10.63;;
47625;SDS011;33342;45.574;9.252;2023-07-20T06:56:50;20.02;;;11.15;;
47625;SDS011;33342;45.574;9.252;2023-07-20T06:59:20;18.58;;;9.45;;
47625;SDS011;33342;45.574;9.252;2023-07-20T07:01:48;18.88;;;10.85;;
47625;SDS011;33342;45.574;9.252;2023-07-20T07:04:15;20.00;;;10.30;;
47625;SDS011;33342;45.574;9.252;2023-07-20T07:06:42;17.42;;;9.43;;
47625;SDS011;33342;45.574;9.252;2023-07-20T07:09:10;16.20;;;10.23;;
47625;SDS011;33342;45.574;9.252;2023-07-20T07:11:38;13.43;;;8.98;;
47625;SDS011;33342;45.574;9.252;2023-07-20T07:14:05;16.67;;;10.27;;
47625;SDS011;33342;45.574;9.252;2023-07-20T07:16:34;18.77;;;10.45;;
47625;SDS011;33342;45.574;9.252;2023-07-20T07:19:05;15.23;;;10.32;;
47625;SDS011;33342;45.574;9.252;2023-07-20T07:21:32;20.30;;;10.00;;
47625;SDS011;33342;45.574;9.252;2023-07-20T07:23:59;13.43;;;9.32;;
47625;SDS011;33342;45.574;9.252;2023-07-20T07:26:26;20.45;;;9.93;;
47625;SDS011;33342;45.574;9.252;2023-07-20T07:28:53;22.08;;;9.48;;
47625;SDS011;33342;45.574;9.252;2023-07-20T07:31:20;15.25;;;9.63;;
47625;SDS011;33342;45.574;9.252;2023-07-20T07:33:48;19.20;;;9.60;;
47625;SDS011;33342;45.574;9.252;2023-07-20T07:36:15;18.13;;;9.82;;
47625;SDS011;33342;45.574;9.252;2023-07-20T07:38:42;15.13;;;8.95;;
47625;SDS011;33342;45.574;9.252;2023-07-20T07:41:12;15.30;;;8.38;;
47625;SDS011;33342;45.574;9.252;2023-07-20T07:43:40;15.00;;;8.38;;
47625;SDS011;33342;45.574;9.252;2023-07-20T07:46:07;15.27;;;7.68;;
47625;SDS011;33342;45.574;9.252;2023-07-20T07:48:34;15.57;;;8.35;;
47625;SDS011;33342;45.574;9.252;2023-07-20T07:51:02;15.55;;;9.13;;
47625;SDS011;33342;45.574;9.252;2023-07-20T07:53:29;14.25;;;7.93;;
47625;SDS011;33342;45.574;9.252;2023-07-20T07:55:56;12.90;;;7.80;;
47625;SDS011;33342;45.574;9.252;2023-07-20T07:58:23;14.60;;;7.75;;
47625;SDS011;33342;45.574;9.252;2023-07-20T08:00:50;16.20;;;8.27;;
47625;SDS011;33342;45.574;9.252;2023-07-20T08:03:17;16.85;;;7.72;;
47625;SDS011;33342;45.574;9.252;2023-07-20T08:05:45;11.48;;;6.70;;
47625;SDS011;33342;45.574;9.252;2023-07-20T08:08:12;14.32;;;7.18;;
47625;SDS011;33342;45.574;9.252;2023-07-20T08:10:39;12.48;;;7.15;;
47625;SDS011;33342;45.574;9.252;2023-07-20T08:13:06;14.80;;;7.97;;
47625;SDS011;33342;45.574;9.252;2023-07-20T08:15:34;16.60;;;8.02;;
47625;SDS011;33342;45.574;9.252;2023-07-20T08:18:01;20.67;;;7.75;;
47625;SDS011;33342;45.574;9.252;2023-07-20T08:20:28;16.25;;;8.13;;
47625;SDS011;33342;45.574;9.252;2023-07-20T08:22:55;11.75;;;6.60;;
47625;SDS011;33342;45.574;9.252;2023-07-20T08:25:24;11.20;;;6.30;;
47625;SDS011;33342;45.574;9.252;2023-07-20T08:27:52;10.27;;;6.13;;
47625;SDS011;33342;45.574;9.252;2023-07-20T08:30:21;9.45;;;5.22;;
47625;SDS011;33342;45.574;9.252;2023-07-20T08:32:50;15.02;;;5.70;;
47625;SDS011;33342;45.574;9.252;2023-07-20T08:35:17;13.00;;;5.80;;
47625;SDS011;33342;45.574;9.252;2023-07-20T08:37:47;13.88;;;5.40;;
47625;SDS011;33342;45.574;9.252;2023-07-20T08:40:15;11.32;;;5.57;;
47625;SDS011;33342;45.574;9.252;2023-07-20T08:42:42;12.98;;;6.03;;
47625;SDS011;33342;45.574;9.252;2023-07-20T08:45:10;11.65;;;5.65;;
47625;SDS011;33342;45.574;9.252;2023-07-20T08:47:40;12.52;;;4.88;;
47625;SDS011;33342;45.574;9.252;2023-07-20T08:50:11;11.20;;;5.65;;
47625;SDS011;33342;45.574;9.252;2023-07-20T08:52:39;12.35;;;5.18;;
47625;SDS011;33342;45.574;9.252;2023-07-20T08:55:06;12.38;;;6.15;;
47625;SDS011;33342;45.574;9.252;2023-07-20T08:57:33;13.23;;;5.80;;
47625;SDS011;33342;45.574;9.252;2023-07-20T09:00:02;9.57;;;5.00;;
47625;SDS011;33342;45.574;9.252;2023-07-20T09:02:31;12.70;;;5.15;;
47625;SDS011;33342;45.574;9.252;2023-07-20T09:05:05;13.27;;;5.83;;
47625;SDS011;33342;45.574;9.252;2023-07-20T09:07:36;9.02;;;5.90;;
47625;SDS011;33342;45.574;9.252;2023-07-20T09:10:03;10.95;;;5.60;;
47625;SDS011;33342;45.574;9.252;2023-07-20T09:12:35;11.63;;;5.75;;
47625;SDS011;33342;45.574;9.252;2023-07-20T09:15:04;12.43;;;5.22;;
47625;SDS011;33342;45.574;9.252;2023-07-20T09:17:33;14.43;;;5.68;;
47625;SDS011;33342;45.574;9.252;2023-07-20T09:20:04;11.52;;;5.68;;
47625;SDS011;33342;45.574;9.252;2023-07-20T09:22:34;11.57;;;5.78;;
47625;SDS011;33342;45.574;9.252;2023-07-20T09:25:01;8.43;;;4.95;;
47625;SDS011;33342;45.574;9.252;2023-07-20T09:27:35;9.43;;;5.45;;
47625;SDS011;33342;45.574;9.252;2023-07-20T09:30:06;10.75;;;5.18;;
47625;SDS011;33342;45.574;9.252;2023-07-20T09:32:38;11.32;;;5.68;;
47625;SDS011;33342;45.574;9.252;2023-07-20T09:35:20;15.53;;;6.13;;
47625;SDS011;33342;45.574;9.252;2023-07-20T09:40:40;13.27;;;5.72;;
47625;SDS011;33342;45.574;9.252;2023-07-20T09:43:11;12.95;;;5.53;;
47625;SDS011;33342;45.574;9.252;2023-07-20T09:45:42;11.77;;;5.25;;
47625;SDS011;33342;45.574;9.252;2023-07-20T09:48:12;11.00;;;6.25;;
47625;SDS011;33342;45.574;9.252;2023-07-20T09:50:48;10.90;;;5.50;;
47625;SDS011;33342;45.574;9.252;2023-07-20T09:53:17;10.35;;;5.32;;
47625;SDS011;33342;45.574;9.252;2023-07-20T09:55:45;12.35;;;5.22;;
47625;SDS011;33342;45.574;9.252;2023-07-20T09:58:14;9.82;;;5.30;;
47625;SDS011;33342;45.574;9.252;2023-07-20T10:00:42;10.90;;;5.30;;
47625;SDS011;33342;45.574;9.252;2023-07-20T10:03:20;12.32;;;5.97;;
47625;SDS011;33342;45.574;9.252;2023-07-20T10:06:00;8.30;;;5.40;;
47625;SDS011;33342;45.574;9.252;2023-07-20T10:08:30;11.50;;;5.60;;
47625;SDS011;33342;45.574;9.252;2023-07-20T10:11:03;11.07;;;5.60;;
47625;SDS011;33342;45.574;9.252;2023-07-20T10:13:32;10.23;;;5.57;;
47625;SDS011;33342;45.574;9.252;2023-07-20T10:16:08;11.35;;;5.22;;
47625;SDS011;33342;45.574;9.252;2023-07-20T10:18:41;10.75;;;6.22;;
47625;SDS011;33342;45.574;9.252;2023-07-20T10:21:21;12.50;;;5.90;;
47625;SDS011;33342;45.574;9.252;2023-07-20T10:23:57;10.05;;;5.93;;
47625;SDS011;33342;45.574;9.252;2023-07-20T10:26:27;13.40;;;6.13;;
47625;SDS011;33342;45.574;9.252;2023-07-20T10:28:54;11.00;;;5.38;;
47625;SDS011;33342;45.574;9.252;2023-07-20T10:31:23;13.23;;;5.90;;
47625;SDS011;33342;45.574;9.252;2023-07-20T10:33:51;11.50;;;6.15;;
47625;SDS011;33342;45.574;9.252;2023-07-20T10:36:25;10.40;;;5.55;;
47625;SDS011;33342;45.574;9.252;2023-07-20T10:38:57;12.80;;;5.22;;
47625;SDS011;33342;45.574;9.252;2023-07-20T10:44:02;13.13;;;5.90;;
47625;SDS011;33342;45.574;9.252;2023-07-20T10:49:12;12.07;;;5.55;;
47625;SDS011;33342;45.574;9.252;2023-07-20T10:51:42;11.70;;;5.68;;
47625;SDS011;33342;45.574;9.252;2023-07-20T10:56:49;9.52;;;5.45;;
47625;SDS011;33342;45.574;9.252;2023-07-20T11:01:50;10.40;;;5.93;;
47625;SDS011;33342;45.574;9.252;2023-07-20T11:07:56;11.15;;;5.53;;
47625;SDS011;33342;45.574;9.252;2023-07-20T11:10:16;11.27;;;5.50;;
47625;SDS011;33342;45.574;9.252;2023-07-20T11:15:44;12.07;;;5.82;;
47625;SDS011;33342;45.574;9.252;2023-07-20T11:18:27;11.50;;;6.28;;
47625;SDS011;33342;45.574;9.252;2023-07-20T11:20:55;14.30;;;6.30;;
47625;SDS011;33342;45.574;9.252;2023-07-20T11:23:22;10.43;;;5.45;;
47625;SDS011;33342;45.574;9.252;2023-07-20T11:25:50;10.10;;;5.40;;
47625;SDS011;33342;45.574;9.252;2023-07-20T11:28:17;11.95;;;6.22;;
47625;SDS011;33342;45.574;9.252;2023-07-20T11:30:44;10.77;;;6.00;;
47625;SDS011;33342;45.574;9.252;2023-07-20T11:33:11;17.35;;;7.57;;
47625;SDS011;33342;45.574;9.252;2023-07-20T11:35:44;13.43;;;8.02;;
47625;SDS011;33342;45.574;9.252;2023-07-20T11:38:16;16.48;;;8.55;;
47625;SDS011;33342;45.574;9.252;2023-07-20T11:40:44;14.75;;;8.70;;
47625;SDS011;33342;45.574;9.252;2023-07-20T11:43:13;17.90;;;12.20;;
47625;SDS011;33342;45.574;9.252;2023-07-20T11:45:45;14.30;;;9.13;;
47625;SDS011;33342;45.574;9.252;2023-07-20T11:48:15;15.05;;;8.57;;
47625;SDS011;33342;45.574;9.252;2023-07-20T11:50:43;11.90;;;7.75;;
47625;SDS011;33342;45.574;9.252;2023-07-20T11:53:10;14.55;;;8.50;;
47625;SDS011;33342;45.574;9.252;2023-07-20T11:55:39;16.60;;;8.50;;
47625;SDS011;33342;45.574;9.252;2023-07-20T11:58:08;17.17;;;8.43;;
47625;SDS011;33342;45.574;9.252;2023-07-20T12:00:37;12.65;;;8.68;;
47625;SDS011;33342;45.574;9.252;2023-07-20T12:03:06;15.55;;;9.10;;
47625;SDS011;33342;45.574;9.252;2023-07-20T12:05:34;14.80;;;8.50;;
47625;SDS011;33342;45.574;9.252;2023-07-20T12:08:21;15.35;;;8.52;;
47625;SDS011;33342;45.574;9.252;2023-07-20T12:10:48;16.67;;;8.60;;
47625;SDS011;33342;45.574;9.252;2023-07-20T12:13:16;13.50;;;8.73;;
47625;SDS011;33342;45.574;9.252;2023-07-20T12:15:43;15.02;;;8.90;;
47625;SDS011;33342;45.574;9.252;2023-07-20T12:18:10;11.13;;;7.93;;
47625;SDS011;33342;45.574;9.252;2023-07-20T12:20:38;14.38;;;8.00;;
47625;SDS011;33342;45.574;9.252;2023-07-20T12:23:10;13.60;;;7.85;;
47625;SDS011;33342;45.574;9.252;2023-07-20T12:28:09;15.38;;;8.68;;
47625;SDS011;33342;45.574;9.252;2023-07-20T12:30:38;16.90;;;8.35;;
47625;SDS011;33342;45.574;9.252;2023-07-20T12:33:05;12.35;;;8.55;;
47625;SDS011;33342;45.574;9.252;2023-07-20T12:35:33;15.50;;;8.20;;
47625;SDS011;33342;45.574;9.252;2023-07-20T12:38:01;13.82;;;8.65;;
47625;SDS011;33342;45.574;9.252;2023-07-20T12:40:28;14.75;;;8.57;;
47625;SDS011;33342;45.574;9.252;2023-07-20T12:42:56;15.77;;;8.63;;
47625;SDS011;33342;45.574;9.252;2023-07-20T12:45:24;15.57;;;8.57;;
47625;SDS011;33342;45.574;9.252;2023-07-20T12:47:51;13.98;;;7.78;;
47625;SDS011;33342;45.574;9.252;2023-07-20T12:50:18;12.45;;;8.32;;
47625;SDS011;33342;45.574;9.252;2023-07-20T12:52:45;13.95;;;8.43;;
47625;SDS011;33342;45.574;9.252;2023-07-20T12:55:13;13.45;;;8.93;;
47625;SDS011;33342;45.574;9.252;2023-07-20T12:57:40;16.23;;;9.35;;
47625;SDS011;33342;45.574;9.252;2023-07-20T13:00:09;12.82;;;7.78;;
47625;SDS011;33342;45.574;9.252;2023-07-20T13:02:38;11.80;;;8.50;;
47625;SDS011;33342;45.574;9.252;2023-07-20T13:05:05;11.60;;;8.02;;
47625;SDS011;33342;45.574;9.252;2023-07-20T13:07:36;15.48;;;8.65;;
47625;SDS011;33342;45.574;9.252;2023-07-20T13:10:07;13.07;;;8.23;;
47625;SDS011;33342;45.574;9.252;2023-07-20T13:12:36;17.63;;;8.98;;
47625;SDS011;33342;45.574;9.252;2023-07-20T13:15:05;12.88;;;7.82;;
47625;SDS011;33342;45.574;9.252;2023-07-20T13:17:33;14.65;;;7.40;;
47625;SDS011;33342;45.574;9.252;2023-07-20T13:20:08;14.00;;;7.93;;
47625;SDS011;33342;45.574;9.252;2023-07-20T13:22:37;14.80;;;7.80;;
47625;SDS011;33342;45.574;9.252;2023-07-20T13:25:05;11.38;;;7.85;;
47625;SDS011;33342;45.574;9.252;2023-07-20T13:27:33;17.42;;;8.40;;
47625;SDS011;33342;45.574;9.252;2023-07-20T13:30:01;18.90;;;7.82;;
47625;SDS011;33342;45.574;9.252;2023-07-20T13:32:35;15.77;;;8.40;;
47625;SDS011;33342;45.574;9.252;2023-07-20T13:35:03;14.95;;;8.40;;
47625;SDS011;33342;45.574;9.252;2023-07-20T13:37:31;12.23;;;7.72;;
47625;SDS011;33342;45.574;9.252;2023-07-20T13:39:58;13.20;;;7.95;;
47625;SDS011;33342;45.574;9.252;2023-07-20T13:42:25;13.63;;;7.75;;
47625;SDS011;33342;45.574;9.252;2023-07-20T13:44:53;15.57;;;7.40;;
47625;SDS011;33342;45.574;9.252;2023-07-20T13:47:22;14.45;;;7.63;;
47625;SDS011;33342;45.574;9.252;2023-07-20T13:49:49;10.98;;;7.30;;
47625;SDS011;33342;45.574;9.252;2023-07-20T13:52:30;14.48;;;7.93;;
47625;SDS011;33342;45.574;9.252;2023-07-20T13:55:00;12.88;;;7.38;;
47625;SDS011;33342;45.574;9.252;2023-07-20T13:57:31;12.65;;;8.38;;
47625;SDS011;33342;45.574;9.252;2023-07-20T14:00:01;11.60;;;7.70;;
47625;SDS011;33342;45.574;9.252;2023-07-20T14:02:38;12.23;;;6.85;;
47625;SDS011;33342;45.574;9.252;2023-07-20T14:05:08;13.85;;;7.68;;
47625;SDS011;33342;45.574;9.252;2023-07-20T14:07:39;13.43;;;7.50;;
47625;SDS011;33342;45.574;9.252;2023-07-20T14:10:06;15.18;;;7.50;;
47625;SDS011;33342;45.574;9.252;2023-07-20T14:12:37;14.48;;;7.10;;
47625;SDS011;33342;45.574;9.252;2023-07-20T14:15:04;12.43;;;7.10;;
47625;SDS011;33342;45.574;9.252;2023-07-20T14:17:32;14.00;;;7.22;;
47625;SDS011;33342;45.574;9.252;2023-07-20T14:19:59;12.80;;;7.13;;
47625;SDS011;33342;45.574;9.252;2023-07-20T14:22:26;13.02;;;9.20;;
47625;SDS011;33342;45.574;9.252;2023-07-20T14:24:53;13.02;;;7.53;;
47625;SDS011;33342;45.574;9.252;2023-07-20T14:27:21;10.65;;;6.85;;
47625;SDS011;33342;45.574;9.252;2023-07-20T14:29:48;16.58;;;6.97;;
47625;SDS011;33342;45.574;9.252;2023-07-20T14:32:15;13.50;;;6.75;;
47625;SDS011;33342;45.574;9.252;2023-07-20T14:34:42;11.88;;;6.90;;
47625;SDS011;33342;45.574;9.252;2023-07-20T14:37:12;10.00;;;6.65;;
47625;SDS011;33342;45.574;9.252;2023-07-20T14:39:40;13.45;;;6.80;;
47625;SDS011;33342;45.574;9.252;2023-07-20T14:42:07;11.25;;;6.57;;
47625;SDS011;33342;45.574;9.252;2023-07-20T14:44:34;11.75;;;7.00;;
47625;SDS011;33342;45.574;9.252;2023-07-20T14:47:03;9.68;;;6.80;;
47625;SDS011;33342;45.574;9.252;2023-07-20T14:49:39;12.70;;;6.63;;
47625;SDS011;33342;45.574;9.252;2023-07-20T14:52:07;11.43;;;6.30;;
47625;SDS011;33342;45.574;9.252;2023-07-20T14:54:37;12.55;;;6.15;;
47625;SDS011;33342;45.574;9.252;2023-07-20T14:57:05;13.10;;;6.47;;
47625;SDS011;33342;45.574;9.252;2023-07-20T14:59:40;12.48;;;6.80;;
47625;SDS011;33342;45.574;9.252;2023-07-20T15:02:11;11.45;;;6.75;;
47625;SDS011;33342;45.574;9.252;2023-07-20T15:04:45;11.05;;;6.53;;
47625;SDS011;33342;45.574;9.252;2023-07-20T15:07:19;14.20;;;6.32;;
47625;SDS011;33342;45.574;9.252;2023-07-20T15:09:50;13.02;;;5.97;;
47625;SDS011;33342;45.574;9.252;2023-07-20T15:12:17;12.02;;;7.80;;
47625;SDS011;33342;45.574;9.252;2023-07-20T15:14:44;15.98;;;7.50;;